Time;durP1;ratioP1;P1;durP2;ratioP2;P2;SDS_P1;SDS_P2;PMS_P1;PMS_P2;Temp;Humidity;BMP_temperature;BMP_pressure;BME280_temperature;BME280_humidity;BME280_pressure;Samples;Min_cycle;Max_cycle;Signal;HPM_P1;HPM_P2
2021/12/03 05:29:10;;;;;;;;;;;;;;;4.31;100.00;97547.38;5854409;23;19922;-69
2021/12/03 05:31:38;;;;;;;;;;;;;;;4.36;100.00;97544.28;4899166;29;19927;-70
2021/12/03 05:34:16;;;;;;;;;;;;;;;4.44;100.00;97553.47;4883372;29;20260;-70
2021/12/03 05:36:46;;;;;;;;;;;;;;;4.38;100.00;97547.47;4897656;29;19938;-70
2021/12/03 05:39:14;;;;;;;;;;;;;;;4.45;100.00;97555.84;4898736;29;19958;-70
2021/12/03 05:41:41;;;;;;;;;;;;;;;4.47;100.00;97555.50;4897795;29;20189;-69
2021/12/03 05:44:09;;;;;;;;;;;;;;;4.40;100.00;97556.19;4898112;29;19943;-70
2021/12/03 05:46:37;;;;;;;;;;;;;;;4.50;100.00;97563.81;4898663;29;19927;-70
2021/12/03 05:49:06;;;;;;;;;;;;;;;4.46;100.00;97574.06;4898901;29;19935;-70
2021/12/03 05:51:33;;;;;;;;;;;;;;;4.46;100.00;97579.59;4898572;29;19939;-69
2021/12/03 05:54:01;;;;;;;;;;;;;;;4.43;100.00;97577.56;4898746;29;19932;-70
2021/12/03 05:56:28;;;;;;;;;;;;;;;4.47;100.00;97583.16;4898394;29;20246;-70
2021/12/03 05:58:57;;;;;;;;;;;;;;;4.48;100.00;97584.75;4892407;29;19932;-70
2021/12/03 06:01:25;;;;;;;;;;;;;;;4.43;100.00;97591.41;4900500;29;19935;-70
2021/12/03 06:03:52;;;;;;;;;;;;;;;4.40;100.00;97594.94;4901631;29;19939;-69
2021/12/03 06:06:19;;;;;;;;;;;;;;;4.44;100.00;97604.09;4885218;29;19931;-70
2021/12/03 06:08:47;;;;;;;;;;;;;;;4.39;100.00;97604.41;4901198;29;19928;-70
2021/12/03 06:11:14;;;;;;;;;;;;;;;4.44;100.00;97601.31;4886178;29;20217;-70
2021/12/03 06:13:41;;;;;;;;;;;;;;;4.40;100.00;97603.22;4901575;29;19936;-69
2021/12/03 06:16:11;;;;;;;;;;;;;;;4.39;100.00;97615.50;4901175;29;19943;-70
2021/12/03 06:18:38;;;;;;;;;;;;;;;4.39;100.00;97603.63;4901589;29;19931;-70
2021/12/03 06:21:07;;;;;;;;;;;;;;;4.47;100.00;97611.66;4901649;29;20320;-70
2021/12/03 06:23:35;;;;;;;;;;;;;;;4.43;100.00;97621.06;4900844;29;19932;-70
2021/12/03 06:26:02;;;;;;;;;;;;;;;4.43;100.00;97627.41;4901457;29;19943;-70
2021/12/03 06:28:30;;;;;;;;;;;;;;;4.40;100.00;97633.69;4901502;29;19934;-70
2021/12/03 06:30:58;;;;;;;;;;;;;;;4.40;100.00;97633.69;4900772;29;19931;-70
2021/12/03 06:33:25;;;;;;;;;;;;;;;4.42;100.00;97636.91;4901179;29;19931;-70
2021/12/03 06:35:52;;;;;;;;;;;;;;;4.44;100.00;97640.09;4884628;29;19932;-70
2021/12/03 06:38:20;;;;;;;;;;;;;;;4.45;100.00;97649.97;4901631;29;19939;-70
2021/12/03 06:40:49;;;;;;;;;;;;;;;4.43;100.00;97659.81;4900512;29;19961;-70
2021/12/03 06:43:17;;;;;;;;;;;;;;;4.41;100.00;97660.19;4907493;29;19927;-70
2021/12/03 06:45:46;;;;;;;;;;;;;;;4.39;100.00;97657.00;4899711;29;19932;-69
2021/12/03 06:48:14;;;;;;;;;;;;;;;4.37;100.00;97664.91;4900859;29;19931;-70
2021/12/03 06:50:43;;;;;;;;;;;;;;;4.39;100.00;97675.59;4901520;29;19947;-70
2021/12/03 06:53:13;;;;;;;;;;;;;;;4.43;100.00;97684.72;4900999;29;19967;-70
2021/12/03 06:55:50;;;;;;;;;;;;;;;4.48;100.00;97684.41;4901127;29;19939;-70
2021/12/03 06:58:18;;;;;;;;;;;;;;;4.39;100.00;97687.47;4900536;29;19938;-70
2021/12/03 07:00:47;;;;;;;;;;;;;;;4.46;100.00;97697.81;4900723;29;19935;-70
2021/12/03 07:03:14;;;;;;;;;;;;;;;4.44;100.00;97702.94;4900991;29;19939;-70
2021/12/03 07:05:42;;;;;;;;;;;;;;;4.51;100.00;97706.63;4900675;29;19932;-70
2021/12/03 07:08:10;;;;;;;;;;;;;;;4.61;100.00;97708.75;4900057;29;20001;-70
2021/12/03 07:10:37;;;;;;;;;;;;;;;4.71;100.00;97717.59;4900404;29;20313;-70
2021/12/03 07:13:05;;;;;;;;;;;;;;;4.84;100.00;97713.44;4900702;29;20348;-69
2021/12/03 07:15:33;;;;;;;;;;;;;;;4.84;100.00;97721.75;4901161;29;19943;-69
2021/12/03 07:18:00;;;;;;;;;;;;;;;4.91;100.00;97724.59;4900495;29;19927;-70
2021/12/03 07:20:28;;;;;;;;;;;;;;;4.96;100.00;97727.06;4899132;29;20351;-70
2021/12/03 07:22:56;;;;;;;;;;;;;;;4.94;100.00;97732.94;4900654;29;19931;-70
2021/12/03 07:25:23;;;;;;;;;;;;;;;4.97;100.00;97734.16;4900718;29;19935;-70
2021/12/03 07:27:51;;;;;;;;;;;;;;;4.97;100.00;97740.53;4900046;29;19935;-70
2021/12/03 07:30:19;;;;;;;;;;;;;;;5.02;100.00;97747.69;4900275;29;19939;-70
2021/12/03 07:32:46;;;;;;;;;;;;;;;5.03;100.00;97744.56;4900267;29;19931;-70
2021/12/03 07:35:14;;;;;;;;;;;;;;;5.05;100.00;97749.72;4900187;29;20488;-70
2021/12/03 07:37:43;;;;;;;;;;;;;;;5.11;100.00;97764.88;4900232;29;19931;-70
2021/12/03 07:40:11;;;;;;;;;;;;;;;5.12;100.00;97781.13;4900321;29;19932;-70
2021/12/03 07:42:39;;;;;;;;;;;;;;;5.12;100.00;97770.03;4900158;29;19931;-70
2021/12/03 07:45:08;;;;;;;;;;;;;;;5.26;100.00;97786.84;4900149;29;19949;-70
2021/12/03 07:47:36;;;;;;;;;;;;;;;5.33;100.00;97791.69;4899183;29;19931;-70
2021/12/03 07:50:07;;;;;;;;;;;;;;;5.41;100.00;97798.91;4899584;29;19928;-70
2021/12/03 07:52:35;;;;;;;;;;;;;;;5.46;100.00;97804.13;4899245;29;19943;-70
2021/12/03 07:55:04;;;;;;;;;;;;;;;5.53;100.00;97809.78;4899926;29;19938;-70
2021/12/03 07:57:31;;;;;;;;;;;;;;;5.56;100.00;97813.75;4900347;29;19931;-70
2021/12/03 07:59:59;;;;;;;;;;;;;;;5.51;100.00;97814.91;4899411;29;20232;-70
2021/12/03 08:02:26;;;;;;;;;;;;;;;5.44;100.00;97820.34;4900094;29;19931;-70
2021/12/03 08:04:54;;;;;;;;;;;;;;;5.37;100.00;97831.34;4898955;29;19936;-70
2021/12/03 08:07:23;;;;;;;;;;;;;;;5.33;100.00;97830.47;4899597;29;19942;-70
2021/12/03 08:09:51;;;;;;;;;;;;;;;5.37;100.00;97834.13;4899966;29;19938;-70
2021/12/03 08:12:18;;;;;;;;;;;;;;;5.36;100.00;97831.72;4899881;29;19934;-70
2021/12/03 08:14:45;;;;;;;;;;;;;;;5.40;100.00;97835.34;4899398;29;19934;-70
2021/12/03 08:17:13;;;;;;;;;;;;;;;5.43;100.00;97837.38;4898818;29;19936;-70
2021/12/03 08:19:40;;;;;;;;;;;;;;;5.45;100.00;97843.34;4899921;29;19927;-70
2021/12/03 08:22:07;;;;;;;;;;;;;;;5.54;100.00;97841.88;4899593;29;20221;-70
2021/12/03 08:24:35;;;;;;;;;;;;;;;5.58;100.00;97853.81;4899085;29;19961;-70
2021/12/03 08:27:02;;;;;;;;;;;;;;;5.64;100.00;97849.56;4899374;29;19932;-70
2021/12/03 08:29:31;;;;;;;;;;;;;;;5.71;100.00;97855.19;4898682;29;19931;-70
2021/12/03 08:31:59;;;;;;;;;;;;;;;5.78;100.00;97863.59;4894931;29;19935;-70
2021/12/03 08:34:26;;;;;;;;;;;;;;;5.91;100.00;97865.00;4898920;29;19938;-70
2021/12/03 08:36:53;;;;;;;;;;;;;;;6.05;100.00;97866.31;4899422;29;19935;-70
2021/12/03 08:39:23;;;;;;;;;;;;;;;6.18;100.00;97876.00;4899243;29;19931;-70
2021/12/03 08:41:51;;;;;;;;;;;;;;;6.29;100.00;97874.94;4899138;29;19931;-70
2021/12/03 08:44:18;;;;;;;;;;;;;;;6.41;100.00;97879.41;4898601;29;19938;-70
2021/12/03 08:46:47;;;;;;;;;;;;;;;6.49;100.00;97887.47;4898640;29;20660;-70
2021/12/03 08:49:25;;;;;;;;;;;;;;;6.54;100.00;97895.44;4899371;29;19935;-70
2021/12/03 08:52:27;;;;;;;;;;;;;;;6.60;100.00;97893.91;4899024;29;19928;-70
2021/12/03 08:54:55;;;;;;;;;;;;;;;6.63;100.00;97894.34;4899180;29;19939;-70
2021/12/03 08:57:24;;;;;;;;;;;;;;;6.60;100.00;97896.69;4898742;29;19935;-70
2021/12/03 08:59:53;;;;;;;;;;;;;;;6.52;100.00;97903.38;4898898;29;19931;-70
2021/12/03 09:02:20;;;;;;;;;;;;;;;6.45;100.00;97902.50;4898938;29;19938;-70
2021/12/03 09:04:48;;;;;;;;;;;;;;;6.50;100.00;97902.94;4898878;29;19927;-70
2021/12/03 09:07:16;;;;;;;;;;;;;;;6.59;100.00;97908.19;4899194;29;19938;-70
2021/12/03 09:09:43;;;;;;;;;;;;;;;6.67;100.00;97915.44;4882490;29;20313;-70
2021/12/03 09:12:11;;;;;;;;;;;;;;;6.83;100.00;97917.94;4898846;29;19943;-70
2021/12/03 09:14:48;;;;;;;;;;;;;;;7.04;100.00;97918.94;4898622;29;19932;-70
2021/12/03 09:22:35;;;;;;;;;;;;;;;7.49;100.00;97919.69;4898630;29;19927;-70
2021/12/03 09:25:04;;;;;;;;;;;;;;;7.87;100.00;97928.28;4898974;29;19939;-70
2021/12/03 09:27:31;;;;;;;;;;;;;;;8.23;100.00;97931.25;4898381;29;19932;-70
2021/12/03 09:29:59;;;;;;;;;;;;;;;8.50;100.00;97929.81;4899308;29;19928;-70
2021/12/03 09:32:30;;;;;;;;;;;;;;;8.80;100.00;97941.47;4898463;29;19932;-70
2021/12/03 09:34:58;;;;;;;;;;;;;;;9.02;100.00;97953.44;4893398;29;19938;-70
2021/12/03 09:37:26;;;;;;;;;;;;;;;9.25;100.00;97951.06;4902063;29;19958;-71
2021/12/03 09:39:54;;;;;;;;;;;;;;;9.39;100.00;97951.06;4902297;29;19943;-70
2021/12/03 09:42:22;;;;;;;;;;;;;;;9.54;100.00;97958.25;4901578;29;19957;-71
2021/12/03 09:44:51;;;;;;;;;;;;;;;9.51;100.00;97950.66;4901760;29;19928;-71
2021/12/03 09:47:19;;;;;;;;;;;;;;;9.68;100.00;97951.88;4886013;29;19927;-71
2021/12/03 09:49:54;;;;;;;;;;;;;;;9.91;100.00;97955.81;4901728;29;19938;-71
2021/12/03 09:52:32;;;;;;;;;;;;;;;10.05;100.00;97954.97;4885496;29;20335;-71
2021/12/03 09:55:09;;;;;;;;;;;;;;;9.95;100.00;97957.81;4901780;29;19986;-71
2021/12/03 09:57:40;;;;;;;;;;;;;;;9.79;100.00;97963.81;4901650;29;19931;-71
2021/12/03 10:13:25;;;;;;;;;;;;;;;8.80;100.00;97979.69;4876877;29;20312;-71
2021/12/03 10:16:08;;;;;;;;;;;;;;;8.67;100.00;97984.00;4901579;29;20317;-71
2021/12/03 10:21:41;;;;;;;;;;;;;;;8.27;100.00;97985.81;4901522;29;19938;-71
2021/12/03 10:31:00;;;;;;;;;;;;;;;8.29;100.00;97986.22;4901673;29;19931;-71
2021/12/03 10:36:40;;;;;;;;;;;;;;;7.90;100.00;97985.97;4901145;29;20630;-71
2021/12/03 10:42:21;;;;;;;;;;;;;;;8.27;100.00;97993.38;4900531;29;20327;-71
2021/12/03 11:01:51;;;;;;;;;;;;;;;8.44;100.00;97987.09;4900791;29;19932;-71
2021/12/03 14:00:07;;;;;;;;;;;;;;;7.37;100.00;98006.22;4901528;29;20325;-71
2021/12/03 14:11:42;;;;;;;;;;;;;;;7.33;100.00;98003.44;4899714;29;20356;-71
2021/12/03 14:37:22;;;;;;;;;;;;;;;7.08;100.00;98042.13;4897579;29;19936;-71
2021/12/03 14:45:16;;;;;;;;;;;;;;;7.00;100.00;98043.22;4891097;29;19931;-71
2021/12/03 14:53:18;;;;;;;;;;;;;;;6.84;100.00;98039.88;4895497;29;19950;-71
2021/12/03 14:55:57;;;;;;;;;;;;;;;6.73;100.00;98038.91;4897176;29;20028;-71
2021/12/03 15:04:28;;;;;;;;;;;;;;;6.42;100.00;98039.31;4895773;29;20200;-71
2021/12/03 15:07:04;;;;;;;;;;;;;;;6.28;100.00;98039.16;4896797;29;20272;-71
2021/12/03 15:09:53;;;;;;;;;;;;;;;6.17;100.00;98039.00;4897460;29;20332;-71
2021/12/03 15:12:52;;;;;;;;;;;;;;;6.03;100.00;98035.22;4888695;29;19931;-71
2021/12/03 15:26:34;;;;;;;;;;;;;;;5.61;100.00;98022.25;4894742;29;19927;-71
2021/12/03 15:29:56;;;;;;;;;;;;;;;5.58;100.00;98022.19;4894439;29;19932;-71
2021/12/03 15:34:38;;;;;;;;;;;;;;;5.61;100.00;98025.03;4874236;29;20310;-71
2021/12/03 16:04:27;;;;;;;;;;;;;;;5.24;100.00;98080.25;4880296;29;19939;-71
2021/12/03 16:12:28;;;;;;;;;;;;;;;5.29;100.00;98070.81;4879064;29;19938;-71
2021/12/03 16:23:30;;;;;;;;;;;;;;;5.24;100.00;98082.22;4874622;29;19935;-71
2021/12/03 16:45:17;;;;;;;;;;;;;;;5.12;100.00;98121.19;4890381;29;19932;-71
2021/12/03 16:48:26;;;;;;;;;;;;;;;5.10;100.00;98127.09;4893451;29;19935;-70
2021/12/03 16:53:22;;;;;;;;;;;;;;;5.00;100.00;98137.97;4895633;29;19927;-71
2021/12/03 16:56:02;;;;;;;;;;;;;;;4.94;100.00;98136.66;4893198;29;19932;-71
2021/12/03 16:58:30;;;;;;;;;;;;;;;4.92;100.00;98144.53;4893711;29;19932;-71
2021/12/03 17:04:07;;;;;;;;;;;;;;;4.87;100.00;98142.03;4863189;29;19936;-71
2021/12/03 17:09:34;;;;;;;;;;;;;;;4.83;100.00;98136.44;4896601;29;20243;-71
2021/12/03 17:49:46;;;;;;;;;;;;;;;4.59;100.00;98170.75;4895525;29;19931;-71
2021/12/03 18:00:09;;;;;;;;;;;;;;;4.54;100.00;98170.22;4898340;29;19931;-70
2021/12/03 18:02:42;;;;;;;;;;;;;;;4.52;100.00;98165.03;4896841;29;19935;-70
2021/12/03 18:13:41;;;;;;;;;;;;;;;4.61;100.00;98164.84;4899155;29;19942;-70
2021/12/03 18:51:36;;;;;;;;;;;;;;;4.66;100.00;98214.41;4847667;29;19939;-70
2021/12/03 18:56:53;;;;;;;;;;;;;;;4.52;100.00;98214.88;4897809;29;19931;-70
2021/12/03 18:59:23;;;;;;;;;;;;;;;4.47;100.00;98209.63;4897167;29;19938;-70
2021/12/03 19:01:53;;;;;;;;;;;;;;;4.42;100.00;98204.38;4898574;29;19946;-70
2021/12/03 19:04:26;;;;;;;;;;;;;;;4.36;100.00;98208.56;4897770;29;20321;-70
2021/12/03 19:09:25;;;;;;;;;;;;;;;4.34;100.00;98210.09;4898655;29;19935;-71
2021/12/03 19:12:01;;;;;;;;;;;;;;;4.34;100.00;98204.56;4900077;29;19932;-71
2021/12/03 19:14:32;;;;;;;;;;;;;;;4.34;100.00;98207.31;4895275;29;19935;-70
2021/12/03 19:17:00;;;;;;;;;;;;;;;4.35;100.00;98200.63;4899113;29;19928;-70
2021/12/03 19:19:29;;;;;;;;;;;;;;;4.39;100.00;98201.50;4899154;29;19931;-70
2021/12/03 19:21:58;;;;;;;;;;;;;;;4.48;100.00;98204.88;4896198;29;20573;-70
2021/12/03 19:24:26;;;;;;;;;;;;;;;4.51;100.00;98218.81;4899209;29;19939;-70
2021/12/03 19:26:54;;;;;;;;;;;;;;;4.54;100.00;98203.44;4898892;29;19942;-70
2021/12/03 19:29:23;;;;;;;;;;;;;;;4.50;100.00;98189.50;4896526;29;21114;-70
2021/12/03 19:31:51;;;;;;;;;;;;;;;4.53;100.00;98190.75;4894109;29;20335;-71
2021/12/03 19:34:19;;;;;;;;;;;;;;;4.50;100.00;98191.47;4894118;29;19962;-70
2021/12/03 19:36:47;;;;;;;;;;;;;;;4.44;100.00;98188.22;4892167;29;19932;-70
2021/12/03 19:39:16;;;;;;;;;;;;;;;4.41;100.00;98201.94;4897062;29;19928;-71
2021/12/03 19:41:49;;;;;;;;;;;;;;;4.38;100.00;98209.00;4889069;29;19934;-70
2021/12/03 19:44:21;;;;;;;;;;;;;;;4.39;100.00;98207.84;4898983;29;19931;-69
2021/12/03 19:46:50;;;;;;;;;;;;;;;4.40;100.00;98222.50;4898766;29;19958;-70
2021/12/03 19:49:33;;;;;;;;;;;;;;;4.37;100.00;98218.50;4899037;29;19939;-70
2021/12/03 19:52:10;;;;;;;;;;;;;;;4.33;100.00;98212.06;4898802;29;19932;-70
2021/12/03 19:54:37;;;;;;;;;;;;;;;4.41;100.00;98202.75;4898474;29;19932;-70
2021/12/03 19:57:05;;;;;;;;;;;;;;;4.45;100.00;98198.09;4898068;29;20001;-70
2021/12/03 19:59:32;;;;;;;;;;;;;;;4.43;100.00;98183.81;4897705;29;20313;-70
2021/12/03 20:02:00;;;;;;;;;;;;;;;4.41;100.00;98183.38;4898697;29;19942;-70
2021/12/03 20:04:28;;;;;;;;;;;;;;;4.33;100.00;98195.44;4898711;29;19934;-70
2021/12/03 20:06:55;;;;;;;;;;;;;;;4.26;100.00;98192.50;4898826;29;19932;-70
2021/12/03 20:09:28;;;;;;;;;;;;;;;4.22;100.00;98188.06;4897824;29;19931;-70
2021/12/03 20:12:04;;;;;;;;;;;;;;;4.24;100.00;98199.56;4893320;29;19932;-71
2021/12/03 20:14:31;;;;;;;;;;;;;;;4.21;100.00;98191.97;4897473;29;19943;-70
2021/12/03 20:17:07;;;;;;;;;;;;;;;4.25;100.00;98188.16;4895992;29;19932;-71
2021/12/03 20:19:38;;;;;;;;;;;;;;;4.24;100.00;98182.97;4896223;29;19958;-70
2021/12/03 20:24:50;;;;;;;;;;;;;;;4.24;100.00;98205.91;4896959;29;19931;-70
2021/12/03 20:27:19;;;;;;;;;;;;;;;4.22;100.00;98219.31;4896531;29;19934;-70
2021/12/03 20:29:50;;;;;;;;;;;;;;;4.25;100.00;98215.03;4897255;29;20628;-70
2021/12/03 20:32:24;;;;;;;;;;;;;;;4.24;100.00;98202.31;4896373;29;19931;-70
2021/12/03 20:37:45;;;;;;;;;;;;;;;4.19;100.00;98202.59;4897258;29;19939;-70
2021/12/03 20:40:23;;;;;;;;;;;;;;;4.11;100.00;98211.91;4897888;29;19931;-70
2021/12/03 20:48:16;;;;;;;;;;;;;;;3.87;100.00;98226.69;4896919;29;19931;-70
2021/12/03 21:09:47;;;;;;;;;;;;;;;3.58;100.00;98258.31;4895395;29;19978;-70
2021/12/03 21:12:22;;;;;;;;;;;;;;;3.55;100.00;98274.81;4894070;29;19927;-70
2021/12/03 21:17:35;;;;;;;;;;;;;;;3.53;100.00;98274.34;4897446;29;19927;-70
2021/12/03 21:20:14;;;;;;;;;;;;;;;3.58;100.00;98255.56;4898033;29;19932;-70
2021/12/03 21:22:48;;;;;;;;;;;;;;;3.64;100.00;98247.81;4897368;29;20640;-70
2021/12/03 21:25:19;;;;;;;;;;;;;;;3.69;100.00;98250.31;4896686;29;20265;-70
2021/12/03 21:27:54;;;;;;;;;;;;;;;3.70;100.00;98247.19;4897798;29;19968;-70
